Time;durP1;ratioP1;P1;durP2;ratioP2;P2;SDS_P1;SDS_P2;PMS_P1;PMS_P2;Temp;Humidity;BMP_temperature;BMP_pressure;BME280_temperature;BME280_humidity;BME280_pressure;Samples;Min_cycle;Max_cycle;Signal;HPM_P1;HPM_P2
2022/08/15 00:01:18;;;;;;;14.13;9.45;;;22.30;99.90;;;;;;6149775;23;20013;-86
2022/08/15 00:03:48;;;;;;;13.55;9.65;;;22.30;99.90;;;;;;6149353;23;20021;-85
2022/08/15 00:06:18;;;;;;;10.30;9.10;;;22.30;99.90;;;;;;6124849;23;20017;-85
2022/08/15 00:08:51;;;;;;;11.13;9.20;;;22.30;99.90;;;;;;6149090;23;20013;-86
2022/08/15 00:11:23;;;;;;;11.30;10.00;;;22.30;99.90;;;;;;6149784;23;20078;-86
2022/08/15 00:13:53;;;;;;;14.88;10.43;;;22.30;99.90;;;;;;6175805;23;20341;-86
2022/08/15 00:16:19;;;;;;;14.63;10.50;;;22.20;99.90;;;;;;6150270;23;20013;-86
2022/08/15 00:18:47;;;;;;;12.43;10.05;;;22.30;99.90;;;;;;6175348;23;20387;-85
2022/08/15 00:21:13;;;;;;;11.98;10.38;;;22.10;99.90;;;;;;6149447;23;20013;-86
2022/08/15 00:23:41;;;;;;;11.65;10.13;;;22.00;99.90;;;;;;6175546;22;20021;-85
2022/08/15 00:26:08;;;;;;;12.27;10.30;;;22.10;99.90;;;;;;6149760;23;20021;-86
2022/08/15 00:28:34;;;;;;;11.75;10.15;;;22.00;99.90;;;;;;6148946;23;20049;-86
2022/08/15 00:31:00;;;;;;;11.40;9.75;;;22.00;99.90;;;;;;6176217;22;20024;-85
2022/08/15 00:33:28;;;;;;;12.23;10.55;;;22.00;99.90;;;;;;6175873;23;20013;-85
2022/08/15 00:35:54;;;;;;;11.90;10.43;;;21.90;99.90;;;;;;6175905;23;20020;-85
2022/08/15 00:38:23;;;;;;;11.85;10.30;;;21.90;99.90;;;;;;6149390;23;20341;-86
2022/08/15 00:43:41;;;;;;;13.70;10.30;;;21.90;99.90;;;;;;6175478;22;20463;-86
2022/08/15 00:46:09;;;;;;;13.07;10.38;;;21.90;99.90;;;;;;6125421;23;20456;-86
2022/08/15 00:48:41;;;;;;;13.65;11.30;;;21.80;99.90;;;;;;6148406;23;20021;-85
2022/08/15 00:51:15;;;;;;;16.25;11.00;;;21.80;99.90;;;;;;6150115;23;20024;-85
2022/08/15 00:53:42;;;;;;;;;;;21.80;99.90;;;;;;6149577;23;20020;-85
2022/08/15 00:56:09;;;;;;;14.80;10.40;;;21.80;99.90;;;;;;6175590;23;20389;-86
2022/08/15 00:58:35;;;;;;;12.05;10.38;;;21.80;99.90;;;;;;6124471;23;20044;-86
2022/08/15 01:01:03;;;;;;;12.38;10.55;;;21.80;99.90;;;;;;6175871;22;20013;-86
2022/08/15 01:03:34;;;;;;;12.05;10.32;;;21.70;99.90;;;;;;6149123;23;20047;-85
2022/08/15 01:06:02;;;;;;;14.45;10.52;;;21.70;99.90;;;;;;6149260;23;20010;-86
2022/08/15 01:08:33;;;;;;;17.17;11.10;;;21.70;99.90;;;;;;6149441;23;20017;-86
2022/08/15 01:11:06;;;;;;;14.20;11.27;;;21.80;99.90;;;;;;6149513;23;20069;-85
2022/08/15 01:13:33;;;;;;;13.10;11.18;;;21.70;99.90;;;;;;6149868;23;20146;-85
2022/08/15 01:15:59;;;;;;;14.38;10.93;;;21.70;99.90;;;;;;6149152;22;20049;-85
2022/08/15 01:18:25;;;;;;;12.80;11.43;;;21.70;99.90;;;;;;6148837;23;20071;-85
2022/08/15 01:20:53;;;;;;;13.40;11.27;;;21.70;99.90;;;;;;6148316;23;20017;-86
2022/08/15 01:23:49;;;;;;;13.90;10.82;;;21.60;99.90;;;;;;6175151;23;20449;-85
2022/08/15 01:26:15;;;;;;;15.73;12.38;;;21.60;99.90;;;;;;6175882;23;20013;-85
2022/08/15 01:28:44;;;;;;;14.27;11.32;;;21.50;99.90;;;;;;6175388;23;20097;-85
2022/08/15 01:31:16;;;;;;;15.85;12.30;;;21.60;99.90;;;;;;6124039;23;20028;-85
2022/08/15 01:33:45;;;;;;;17.27;12.70;;;21.60;99.90;;;;;;6175866;22;20024;-86
2022/08/15 01:36:12;;;;;;;16.15;12.75;;;21.60;99.90;;;;;;6124863;23;20021;-85
2022/08/15 01:38:42;;;;;;;12.60;11.15;;;21.60;99.90;;;;;;6149589;23;20045;-85
2022/08/15 01:41:15;;;;;;;16.77;12.55;;;21.70;99.90;;;;;;6175617;23;20025;-85
2022/08/15 01:43:50;;;;;;;15.27;11.95;;;21.60;99.90;;;;;;6175325;23;20045;-85
2022/08/15 01:46:20;;;;;;;14.50;12.32;;;21.60;99.90;;;;;;6148745;23;20547;-86
2022/08/15 01:48:50;;;;;;;15.13;11.98;;;21.80;99.90;;;;;;6149666;23;20510;-85
2022/08/15 01:51:17;;;;;;;13.40;11.32;;;21.70;99.90;;;;;;6174096;23;20457;-85
2022/08/15 01:53:48;;;;;;;14.23;11.25;;;21.70;99.90;;;;;;6174971;22;20533;-85
2022/08/15 01:56:18;;;;;;;14.85;11.70;;;21.70;99.90;;;;;;6173809;23;20027;-85
2022/08/15 01:58:45;;;;;;;14.77;12.23;;;21.70;99.90;;;;;;6173421;23;20062;-85
2022/08/15 02:01:18;;;;;;;15.05;12.38;;;21.70;99.90;;;;;;6173404;23;20018;-86
2022/08/15 02:03:46;;;;;;;16.65;13.05;;;21.70;99.90;;;;;;6148183;23;20069;-86
2022/08/15 02:06:17;;;;;;;15.30;11.75;;;21.70;99.90;;;;;;6173684;23;20315;-85
2022/08/15 02:08:43;;;;;;;18.65;12.20;;;21.70;99.90;;;;;;6148737;23;20341;-85
2022/08/15 02:11:16;;;;;;;14.85;12.32;;;21.80;99.90;;;;;;6175323;23;20453;-86
2022/08/15 02:13:43;;;;;;;15.95;12.70;;;21.80;99.90;;;;;;6175084;23;20027;-85
2022/08/15 02:16:09;;;;;;;15.70;12.40;;;21.70;99.90;;;;;;6175033;23;20055;-85
2022/08/15 02:18:35;;;;;;;16.05;11.73;;;21.70;99.90;;;;;;6173676;23;20071;-85
2022/08/15 02:21:01;;;;;;;14.75;12.40;;;21.70;99.90;;;;;;6173634;23;20009;-85
2022/08/15 02:23:26;;;;;;;14.38;12.30;;;21.70;99.90;;;;;;6175681;22;20448;-85
2022/08/15 02:25:54;;;;;;;16.27;13.35;;;21.70;99.90;;;;;;6173079;23;20647;-86
2022/08/15 02:28:20;;;;;;;14.80;12.68;;;21.80;99.90;;;;;;6173652;23;20380;-85
2022/08/15 02:30:46;;;;;;;16.50;11.82;;;21.70;99.90;;;;;;6172967;23;20067;-85
2022/08/15 02:33:12;;;;;;;15.05;13.45;;;21.60;99.90;;;;;;6175095;23;20311;-85
2022/08/15 02:35:39;;;;;;;15.98;12.15;;;21.60;99.90;;;;;;6176496;22;20021;-85
2022/08/15 02:38:05;;;;;;;17.42;12.75;;;21.60;99.90;;;;;;6150606;23;20013;-86
2022/08/15 02:40:33;;;;;;;17.50;13.00;;;21.60;99.90;;;;;;6175034;23;20387;-85
2022/08/15 02:43:09;;;;;;;14.95;11.43;;;21.60;99.90;;;;;;6174425;23;20020;-86
2022/08/15 02:45:39;;;;;;;17.70;12.45;;;21.60;99.90;;;;;;6174525;23;20017;-85
2022/08/15 02:48:10;;;;;;;14.30;12.40;;;21.60;99.90;;;;;;6174897;23;20109;-85
2022/08/15 02:50:37;;;;;;;15.00;12.13;;;21.40;99.90;;;;;;6175608;22;20089;-85
2022/08/15 02:53:12;;;;;;;13.23;11.82;;;21.60;99.90;;;;;;6149804;23;20017;-85
2022/08/15 02:55:39;;;;;;;16.02;12.40;;;21.50;99.90;;;;;;6149487;23;20084;-85
2022/08/15 02:58:05;;;;;;;14.98;12.57;;;21.50;99.90;;;;;;6176003;23;20025;-85
2022/08/15 03:00:31;;;;;;;18.13;13.52;;;21.60;99.90;;;;;;6176620;23;20028;-85
2022/08/15 03:03:06;;;;;;;17.63;13.05;;;21.60;99.90;;;;;;6176276;23;20353;-85
2022/08/15 03:05:33;;;;;;;18.88;13.38;;;21.60;99.90;;;;;;6150110;23;20020;-85
2022/08/15 03:08:00;;;;;;;15.98;13.70;;;21.60;99.90;;;;;;6150131;22;20017;-85
2022/08/15 03:10:26;;;;;;;15.13;12.40;;;21.60;99.90;;;;;;6150791;23;20017;-85
2022/08/15 03:12:59;;;;;;;17.60;13.32;;;21.60;99.90;;;;;;6148851;23;20081;-85
2022/08/15 03:15:32;;;;;;;15.60;12.13;;;21.60;99.90;;;;;;6150648;22;20021;-85
2022/08/15 03:17:59;;;;;;;14.05;12.55;;;21.70;99.90;;;;;;6176759;23;20044;-85
2022/08/15 03:20:25;;;;;;;14.43;11.63;;;21.60;99.90;;;;;;6125877;23;20302;-85
2022/08/15 03:22:53;;;;;;;18.73;12.68;;;21.60;99.90;;;;;;6125071;23;20057;-85
2022/08/15 03:25:22;;;;;;;16.38;13.60;;;21.50;99.90;;;;;;6150030;23;20539;-85
2022/08/15 03:27:47;;;;;;;15.45;12.82;;;21.40;99.90;;;;;;6124485;23;20019;-86
2022/08/15 03:30:15;;;;;;;13.80;12.38;;;21.40;99.90;;;;;;6150075;23;20092;-86
2022/08/15 03:32:46;;;;;;;18.08;13.45;;;21.30;99.90;;;;;;6176207;22;20096;-85
2022/08/15 03:35:11;;;;;;;15.35;12.32;;;21.30;99.90;;;;;;6176753;22;20021;-85
2022/08/15 03:37:38;;;;;;;14.80;13.05;;;21.20;99.90;;;;;;6124914;23;20017;-85
2022/08/15 03:40:05;;;;;;;17.85;13.18;;;21.20;99.90;;;;;;6150084;23;20017;-85
2022/08/15 03:42:32;;;;;;;17.40;15.05;;;21.10;99.90;;;;;;6149207;22;20024;-85
2022/08/15 03:44:58;;;;;;;16.60;14.30;;;21.10;99.90;;;;;;6149275;23;20009;-85
2022/08/15 03:47:23;;;;;;;17.02;13.93;;;21.10;99.90;;;;;;6125434;23;20117;-85
2022/08/15 03:49:49;;;;;;;16.90;14.95;;;21.00;99.90;;;;;;6138655;23;20013;-85
2022/08/15 03:52:15;;;;;;;18.25;15.32;;;21.00;99.90;;;;;;6149516;23;20025;-85
2022/08/15 03:54:41;;;;;;;17.75;14.20;;;20.90;99.90;;;;;;6174800;22;20074;-85
2022/08/15 03:57:07;;;;;;;20.30;15.65;;;20.80;99.90;;;;;;6173883;22;20049;-86
2022/08/15 03:59:33;;;;;;;17.65;12.93;;;20.90;99.90;;;;;;6149577;23;20036;-85
2022/08/15 04:01:58;;;;;;;16.90;14.13;;;21.00;99.90;;;;;;6174719;22;20453;-85
2022/08/15 04:04:24;;;;;;;20.60;13.43;;;20.80;99.90;;;;;;6174786;22;20088;-86
2022/08/15 04:06:49;;;;;;;18.25;13.63;;;20.80;99.90;;;;;;6173922;22;20028;-86
2022/08/15 04:09:15;;;;;;;17.27;13.23;;;20.90;99.90;;;;;;6149955;22;20016;-85
2022/08/15 04:11:44;;;;;;;15.82;13.52;;;20.90;99.90;;;;;;6149504;23;20013;-86
2022/08/15 04:14:11;;;;;;;16.60;14.77;;;20.70;99.90;;;;;;6174252;23;20043;-85
2022/08/15 04:16:36;;;;;;;18.13;14.25;;;20.70;99.90;;;;;;6176127;23;20044;-85
2022/08/15 04:19:02;;;;;;;15.75;13.25;;;20.70;99.90;;;;;;6174666;23;20476;-85
2022/08/15 04:21:28;;;;;;;18.77;13.60;;;20.70;99.90;;;;;;6174602;22;20091;-85
2022/08/15 04:23:53;;;;;;;18.60;14.20;;;20.60;99.90;;;;;;6176081;22;20031;-86
2022/08/15 04:26:19;;;;;;;22.25;14.02;;;20.60;99.90;;;;;;6173905;22;20013;-85
2022/08/15 04:28:45;;;;;;;16.45;13.45;;;20.60;99.90;;;;;;6174311;22;20556;-85
2022/08/15 04:31:14;;;;;;;18.52;13.35;;;20.50;99.90;;;;;;6176013;23;20032;-85
2022/08/15 04:33:41;;;;;;;14.82;13.02;;;20.70;99.90;;;;;;6175857;23;20021;-85
2022/08/15 04:36:12;;;;;;;19.80;14.80;;;20.50;99.90;;;;;;6176187;23;20353;-85
2022/08/15 04:38:40;;;;;;;17.38;13.98;;;20.50;99.90;;;;;;6175750;23;20017;-85
2022/08/15 04:41:07;;;;;;;17.67;14.20;;;20.40;99.90;;;;;;6173747;23;20021;-85
2022/08/15 04:43:34;;;;;;;16.52;14.10;;;20.40;99.90;;;;;;6149551;23;20307;-85
2022/08/15 04:46:00;;;;;;;16.00;13.50;;;20.40;99.90;;;;;;6176370;23;20024;-85
2022/08/15 04:48:27;;;;;;;17.45;13.60;;;20.40;99.90;;;;;;6174379;23;20020;-85
2022/08/15 04:50:54;;;;;;;18.20;14.90;;;20.50;99.90;;;;;;6149292;23;20231;-85
2022/08/15 04:53:23;;;;;;;16.02;14.25;;;20.40;99.90;;;;;;6149092;23;20017;-86
2022/08/15 04:55:49;;;;;;;22.83;15.45;;;20.40;99.90;;;;;;6175285;22;20100;-85
2022/08/15 04:58:15;;;;;;;19.20;15.27;;;20.40;99.90;;;;;;6149599;23;20060;-85
2022/08/15 05:00:46;;;;;;;19.83;15.80;;;20.40;99.90;;;;;;6125074;23;20543;-85
2022/08/15 05:03:19;;;;;;;19.10;15.98;;;20.40;99.90;;;;;;6149982;22;20114;-85
2022/08/15 05:05:53;;;;;;;17.67;15.10;;;20.40;99.90;;;;;;6149295;22;20345;-85
2022/08/15 05:08:21;;;;;;;18.42;15.77;;;20.40;99.90;;;;;;6148792;23;20470;-85
2022/08/15 05:11:00;;;;;;;17.48;15.57;;;20.50;99.90;;;;;;6175719;23;20017;-85
2022/08/15 05:13:30;;;;;;;20.85;17.55;;;20.40;99.90;;;;;;6176059;23;20014;-85
2022/08/15 05:15:58;;;;;;;21.63;15.10;;;20.40;99.90;;;;;;6149050;22;20027;-85
2022/08/15 05:18:25;;;;;;;22.13;16.13;;;20.50;99.90;;;;;;6125079;23;20013;-85
2022/08/15 05:20:51;;;;;;;20.15;16.95;;;20.50;99.90;;;;;;6175871;22;20085;-85
2022/08/15 05:23:19;;;;;;;22.38;18.27;;;20.60;99.90;;;;;;6174993;23;20025;-85
2022/08/15 05:25:48;;;;;;;22.35;17.40;;;20.60;99.90;;;;;;6175796;23;20024;-85
2022/08/15 05:28:14;;;;;;;21.60;17.00;;;20.60;99.90;;;;;;6124692;23;20021;-85
2022/08/15 05:30:40;;;;;;;18.83;16.92;;;20.70;99.90;;;;;;6124383;23;20013;-86
2022/08/15 05:33:11;;;;;;;20.52;16.83;;;20.70;99.90;;;;;;6124686;23;20025;-85
2022/08/15 05:35:42;;;;;;;19.40;16.40;;;20.80;99.90;;;;;;6148651;23;20098;-85
2022/08/15 05:38:23;;;;;;;18.83;15.80;;;20.80;99.90;;;;;;6148464;23;20017;-85
2022/08/15 05:41:21;;;;;;;17.38;15.15;;;20.80;99.90;;;;;;6252893;22;20528;-85
2022/08/15 05:44:19;;;;;;;20.23;17.40;;;20.90;99.90;;;;;;6148624;22;20021;-85
2022/08/15 05:47:19;;;;;;;19.67;16.25;;;21.00;99.90;;;;;;6175295;23;20021;-85
2022/08/15 05:49:52;;;;;;;20.30;16.70;;;21.10;99.90;;;;;;6161932;23;20066;-85
2022/08/15 05:52:30;;;;;;;21.60;16.50;;;21.10;99.90;;;;;;6148697;23;20013;-85
2022/08/15 05:55:17;;;;;;;20.05;16.40;;;21.20;99.90;;;;;;6173741;23;20053;-85
2022/08/15 05:58:03;;;;;;;17.15;15.18;;;21.30;99.90;;;;;;6173249;22;20065;-85
2022/08/15 06:00:30;;;;;;;25.33;17.35;;;21.30;99.90;;;;;;6175495;22;20457;-85
2022/08/15 06:03:08;;;;;;;19.65;16.30;;;21.40;99.90;;;;;;6173221;23;20092;-86
2022/08/15 06:05:39;;;;;;;18.52;16.55;;;21.50;99.90;;;;;;6175510;23;20028;-85
2022/08/15 06:08:14;;;;;;;18.15;15.15;;;21.50;99.90;;;;;;6174162;23;20017;-85
2022/08/15 06:10:53;;;;;;;17.10;15.30;;;21.50;99.90;;;;;;6176489;23;20017;-85
2022/08/15 06:13:28;;;;;;;21.38;15.48;;;21.50;99.90;;;;;;6175061;23;20493;-85
2022/08/15 06:16:06;;;;;;;22.90;16.45;;;21.60;99.90;;;;;;6175336;23;20016;-85
2022/08/15 06:18:35;;;;;;;19.60;15.48;;;21.60;99.90;;;;;;6150259;23;20017;-85
2022/08/15 06:21:04;;;;;;;16.98;14.95;;;21.80;99.90;;;;;;6149612;23;20017;-85
2022/08/15 06:24:11;;;;;;;16.25;14.50;;;21.70;99.90;;;;;;6175343;22;20021;-85
2022/08/15 06:27:07;;;;;;;17.60;15.20;;;21.80;99.90;;;;;;6174497;23;20057;-85
2022/08/15 06:30:05;;;;;;;17.15;15.35;;;21.80;99.90;;;;;;6174726;22;20017;-85
2022/08/15 06:33:08;;;;;;;16.98;14.60;;;21.90;99.90;;;;;;6174802;23;20512;-85
2022/08/15 06:35:54;;;;;;;19.38;14.82;;;21.90;99.90;;;;;;6174972;23;20146;-85
2022/08/15 06:38:42;;;;;;;17.13;14.45;;;22.00;99.90;;;;;;6175262;23;20017;-85
2022/08/15 06:42:01;;;;;;;17.33;14.82;;;22.10;99.90;;;;;;6175048;23;20031;-85
2022/08/15 06:44:27;;;;;;;17.30;14.23;;;22.10;99.90;;;;;;6208367;23;20021;-85
2022/08/15 06:46:56;;;;;;;19.73;15.55;;;22.10;99.90;;;;;;6183024;23;20020;-85
2022/08/15 06:49:23;;;;;;;16.92;13.95;;;22.20;99.90;;;;;;6207893;23;20024;-85
2022/08/15 06:51:49;;;;;;;18.63;15.55;;;22.30;99.90;;;;;;6207413;23;20016;-85
2022/08/15 06:54:23;;;;;;;17.10;14.48;;;22.30;99.90;;;;;;6208319;23;20012;-85
2022/08/15 06:57:15;;;;;;;16.77;14.98;;;22.40;99.90;;;;;;6208001;23;20013;-85
2022/08/15 06:59:55;;;;;;;17.67;14.48;;;22.40;99.90;;;;;;6182941;23;20518;-85
2022/08/15 07:02:45;;;;;;;17.50;14.82;;;22.50;99.90;;;;;;6182691;23;20021;-85
2022/08/15 07:05:20;;;;;;;15.77;14.07;;;22.50;99.90;;;;;;6207681;23;20017;-85
2022/08/15 07:08:10;;;;;;;19.02;14.65;;;22.50;99.90;;;;;;6207758;23;20377;-85
2022/08/15 07:10:48;;;;;;;18.48;15.05;;;22.50;99.90;;;;;;6182242;23;20074;-85
2022/08/15 07:13:20;;;;;;;17.60;14.18;;;22.50;99.90;;;;;;6158324;23;20013;-85
2022/08/15 07:15:49;;;;;;;18.05;14.05;;;22.50;99.90;;;;;;6174707;23;20017;-85
2022/08/15 07:18:37;;;;;;;19.00;14.80;;;22.60;99.90;;;;;;6149898;23;20013;-85
2022/08/15 07:21:17;;;;;;;17.92;13.93;;;22.60;99.90;;;;;;6174614;23;20013;-85
2022/08/15 07:24:08;;;;;;;19.13;14.52;;;22.60;99.90;;;;;;6149666;23;20025;-85
2022/08/15 07:26:48;;;;;;;17.50;14.52;;;22.80;99.90;;;;;;6149623;23;20013;-85
2022/08/15 07:29:24;;;;;;;15.45;13.48;;;22.80;99.90;;;;;;6150256;23;20021;-85
2022/08/15 07:31:58;;;;;;;17.63;14.18;;;22.90;99.90;;;;;;6150088;23;20017;-85
2022/08/15 07:34:24;;;;;;;15.30;12.90;;;22.90;99.90;;;;;;6173765;23;20016;-85
2022/08/15 07:37:01;;;;;;;16.38;12.98;;;22.90;99.90;;;;;;6176326;23;20441;-85
2022/08/15 07:39:37;;;;;;;19.00;12.88;;;23.00;99.90;;;;;;6174578;23;20078;-85
2022/08/15 07:42:35;;;;;;;15.07;13.30;;;23.10;99.90;;;;;;6176804;23;20099;-85
2022/08/15 07:45:02;;;;;;;15.50;12.50;;;23.10;99.90;;;;;;6149533;23;20021;-85
2022/08/15 07:47:31;;;;;;;16.08;13.20;;;23.20;99.90;;;;;;6176614;23;20100;-85
2022/08/15 07:50:12;;;;;;;16.27;13.13;;;23.40;99.90;;;;;;6148903;23;20096;-85
2022/08/15 07:52:39;;;;;;;17.17;12.55;;;23.40;99.90;;;;;;6174689;23;20023;-85
2022/08/15 07:55:19;;;;;;;15.35;11.80;;;23.50;99.90;;;;;;6176411;23;20084;-85
2022/08/15 07:58:17;;;;;;;14.88;12.70;;;23.70;99.90;;;;;;6174298;23;20025;-85
2022/08/15 08:01:05;;;;;;;13.98;12.40;;;23.80;99.90;;;;;;6174429;23;20012;-85
2022/08/15 08:03:32;;;;;;;17.67;11.65;;;24.00;99.90;;;;;;6176431;23;20417;-85
2022/08/15 08:06:22;;;;;;;13.48;11.05;;;24.20;99.90;;;;;;6176406;23;20010;-85
2022/08/15 08:09:24;;;;;;;12.00;10.70;;;24.30;99.90;;;;;;6174372;23;20021;-85
2022/08/15 08:12:09;;;;;;;10.95;9.27;;;24.50;99.90;;;;;;6149844;23;20009;-86
2022/08/15 08:14:48;;;;;;;12.00;9.55;;;24.60;99.90;;;;;;6174498;23;20088;-85
2022/08/15 08:17:18;;;;;;;13.70;8.60;;;24.70;99.90;;;;;;6174127;22;20013;-86
2022/08/15 08:20:01;;;;;;;9.13;8.15;;;24.90;99.90;;;;;;6148978;22;20017;-86
2022/08/15 08:22:44;;;;;;;11.38;9.15;;;24.90;99.90;;;;;;6149683;22;20032;-86
2022/08/15 08:25:49;;;;;;;10.63;9.32;;;25.20;99.90;;;;;;6174200;22;20440;-85
2022/08/15 08:28:52;;;;;;;11.93;8.65;;;25.30;99.90;;;;;;6174241;23;20139;-85
2022/08/15 08:31:36;;;;;;;10.38;8.68;;;25.60;99.90;;;;;;6148781;22;20104;-86
2022/08/15 08:34:17;;;;;;;11.93;8.38;;;25.70;99.70;;;;;;6150043;22;20056;-86
2022/08/15 08:37:02;;;;;;;9.45;7.43;;;25.90;99.20;;;;;;6149786;22;20520;-85
2022/08/15 08:39:46;;;;;;;9.75;8.38;;;25.90;99.20;;;;;;6174811;22;20142;-85
2022/08/15 08:42:42;;;;;;;11.35;8.20;;;26.00;97.60;;;;;;6149425;23;20021;-86
2022/08/15 08:45:14;;;;;;;8.90;7.68;;;26.00;97.90;;;;;;6174875;23;20040;-85
2022/08/15 08:48:05;;;;;;;9.23;8.23;;;26.10;98.50;;;;;;6173834;22;20021;-86
2022/08/15 08:50:51;;;;;;;9.80;7.13;;;26.30;97.70;;;;;;6175771;23;20020;-85
2022/08/15 08:53:38;;;;;;;9.07;6.80;;;26.50;97.70;;;;;;6175887;23;20028;-86
2022/08/15 08:56:22;;;;;;;10.10;6.95;;;26.70;97.10;;;;;;6149561;23;20018;-86
2022/08/15 08:58:54;;;;;;;9.77;6.72;;;26.90;97.30;;;;;;6149445;23;20491;-85
2022/08/15 09:01:25;;;;;;;7.85;6.45;;;27.10;97.00;;;;;;6148829;23;20024;-85
2022/08/15 09:03:56;;;;;;;9.90;6.45;;;27.10;96.40;;;;;;6149029;23;20461;-86
2022/08/15 09:06:27;;;;;;;10.30;6.55;;;27.10;96.10;;;;;;6176160;23;20021;-86
2022/08/15 09:09:14;;;;;;;9.20;6.35;;;27.00;94.90;;;;;;6124535;23;20021;-85
2022/08/15 09:14:54;;;;;;;9.77;6.13;;;27.00;95.30;;;;;;6175577;23;20067;-85
2022/08/15 09:17:23;;;;;;;8.38;6.38;;;27.00;95.60;;;;;;6175477;23;20116;-86
2022/08/15 09:19:58;;;;;;;9.27;5.82;;;27.00;95.40;;;;;;6175549;23;20096;-86
2022/08/15 09:22:24;;;;;;;9.88;6.63;;;27.00;95.10;;;;;;6175718;23;20013;-86
2022/08/15 09:24:50;;;;;;;12.88;6.25;;;27.30;95.30;;;;;;6148961;23;20021;-86
2022/08/15 09:27:44;;;;;;;10.13;7.15;;;27.50;95.10;;;;;;6176017;23;20017;-86
2022/08/15 09:30:11;;;;;;;7.57;6.55;;;27.70;94.70;;;;;;6178453;23;20014;-86
2022/08/15 09:33:05;;;;;;;7.82;6.43;;;27.80;94.50;;;;;;6149398;23;20044;-86
2022/08/15 09:35:45;;;;;;;7.20;6.07;;;27.80;94.00;;;;;;6124545;23;20349;-86
2022/08/15 09:38:35;;;;;;;7.72;6.57;;;27.80;94.20;;;;;;6124938;23;20021;-86
2022/08/15 09:41:22;;;;;;;9.13;7.13;;;28.00;94.10;;;;;;6176432;23;20048;-86
2022/08/15 09:44:06;;;;;;;12.77;8.15;;;28.30;93.80;;;;;;6149932;23;20318;-86
2022/08/15 09:46:50;;;;;;;10.85;7.35;;;28.40;93.50;;;;;;6150146;23;20025;-86
2022/08/15 09:49:48;;;;;;;10.27;6.45;;;28.40;92.80;;;;;;6132354;23;20023;-86
2022/08/15 09:52:18;;;;;;;10.60;6.68;;;28.50;91.60;;;;;;6173746;22;20017;-86
2022/08/15 09:54:56;;;;;;;14.75;7.07;;;28.60;92.00;;;;;;6173696;23;20096;-86
2022/08/15 09:57:28;;;;;;;10.30;6.40;;;28.70;92.70;;;;;;6148626;22;20017;-86
2022/08/15 10:00:20;;;;;;;10.50;7.05;;;28.80;91.90;;;;;;6174020;23;20046;-86
2022/08/15 10:02:49;;;;;;;9.43;6.80;;;29.00;91.30;;;;;;6176233;23;20021;-86
2022/08/15 10:05:22;;;;;;;9.02;7.30;;;29.10;91.00;;;;;;6148988;23;20063;-86
2022/08/15 10:07:50;;;;;;;10.43;6.90;;;29.30;91.30;;;;;;6148326;22;20021;-86
2022/08/15 10:10:23;;;;;;;10.25;6.95;;;29.50;91.90;;;;;;6173887;22;20259;-86
2022/08/15 10:13:07;;;;;;;9.43;6.85;;;29.70;91.60;;;;;;6148400;22;20013;-86
2022/08/15 10:15:44;;;;;;;8.50;6.72;;;29.80;90.20;;;;;;6173468;23;20445;-86
2022/08/15 10:18:29;;;;;;;8.70;7.05;;;29.80;89.90;;;;;;6173657;22;20093;-85
2022/08/15 10:21:18;;;;;;;8.82;6.97;;;29.70;90.10;;;;;;6148308;23;20023;-85
2022/08/15 10:23:48;;;;;;;10.27;7.10;;;29.60;90.90;;;;;;6173694;23;20017;-85
2022/08/15 10:26:19;;;;;;;10.70;8.00;;;29.50;91.20;;;;;;6175490;23;20096;-86
2022/08/15 10:28:59;;;;;;;11.38;7.88;;;29.40;91.00;;;;;;6172457;22;20021;-86
2022/08/15 10:31:30;;;;;;;9.30;7.35;;;29.40;91.00;;;;;;6175273;22;20395;-86
2022/08/15 10:34:00;;;;;;;10.52;7.55;;;29.40;91.10;;;;;;6175226;22;20103;-85
2022/08/15 10:36:36;;;;;;;9.75;7.20;;;29.30;91.10;;;;;;6175323;22;20013;-85
2022/08/15 10:39:18;;;;;;;10.32;7.30;;;29.40;90.80;;;;;;6173161;22;20067;-85
2022/08/15 10:42:24;;;;;;;9.93;7.50;;;29.40;91.30;;;;;;6172225;22;20009;-85
2022/08/15 10:45:11;;;;;;;11.10;7.72;;;29.40;90.70;;;;;;6148634;22;20021;-85
2022/08/15 10:47:55;;;;;;;9.18;7.00;;;29.50;91.10;;;;;;6173309;22;20032;-85
2022/08/15 10:50:42;;;;;;;10.68;7.80;;;29.40;91.40;;;;;;6132239;23;1031090;-85
2022/08/15 10:53:34;;;;;;;13.57;8.10;;;29.50;91.30;;;;;;6149945;23;20075;-85
2022/08/15 10:56:13;;;;;;;11.98;8.93;;;29.40;91.10;;;;;;6150020;23;20630;-85
2022/08/15 10:58:39;;;;;;;9.90;7.97;;;29.40;91.30;;;;;;6149199;23;20430;-85
2022/08/15 11:01:12;;;;;;;10.77;8.32;;;29.50;91.50;;;;;;6176720;23;20063;-85
2022/08/15 11:03:43;;;;;;;14.27;8.75;;;29.30;91.00;;;;;;6149785;23;20021;-85
2022/08/15 11:06:13;;;;;;;15.43;9.95;;;29.20;91.00;;;;;;6176626;23;20036;-85
2022/08/15 11:08:49;;;;;;;15.18;10.48;;;28.90;90.90;;;;;;6176184;23;20334;-85
2022/08/15 11:11:16;;;;;;;14.80;11.57;;;28.60;91.10;;;;;;6124708;23;20017;-86
2022/08/15 11:13:49;;;;;;;15.02;11.73;;;28.60;91.60;;;;;;6149473;22;20013;-85
2022/08/15 11:16:18;;;;;;;12.73;10.43;;;28.50;91.90;;;;;;6125323;23;20017;-85
2022/08/15 11:18:52;;;;;;;16.33;11.93;;;28.40;92.30;;;;;;6149469;23;20043;-86
2022/08/15 11:21:29;;;;;;;14.70;12.05;;;28.30;92.30;;;;;;6150030;22;20027;-85
2022/08/15 11:24:07;;;;;;;13.52;11.20;;;28.00;92.40;;;;;;6175916;23;20024;-86
2022/08/15 11:26:40;;;;;;;18.88;12.70;;;27.90;92.90;;;;;;6176066;23;20041;-86
2022/08/15 11:29:06;;;;;;;17.23;12.32;;;27.70;94.20;;;;;;6150305;23;20487;-86
2022/08/15 11:31:31;;;;;;;16.73;12.85;;;27.60;95.40;;;;;;6150322;23;20024;-86
2022/08/15 11:33:57;;;;;;;16.13;13.25;;;27.40;96.40;;;;;;6149508;23;20023;-86
2022/08/15 11:36:25;;;;;;;19.15;14.55;;;27.20;97.30;;;;;;6176645;23;20090;-86
2022/08/15 11:39:01;;;;;;;18.88;12.63;;;27.10;98.20;;;;;;6149320;22;20437;-86
2022/08/15 11:41:30;;;;;;;20.67;14.32;;;27.00;98.60;;;;;;6149282;23;20078;-86
2022/08/15 11:43:59;;;;;;;15.95;13.80;;;26.80;99.00;;;;;;6149060;22;20017;-86
2022/08/15 11:46:26;;;;;;;23.58;14.30;;;26.80;99.10;;;;;;6149729;23;20017;-86
2022/08/15 11:49:04;;;;;;;19.27;13.88;;;27.00;99.60;;;;;;6175387;23;20021;-86
2022/08/15 11:51:36;;;;;;;15.43;13.35;;;26.80;99.50;;;;;;6125111;23;20017;-86
2022/08/15 11:54:10;;;;;;;16.90;13.15;;;26.90;99.90;;;;;;6149476;23;20549;-86
2022/08/15 11:56:51;;;;;;;16.67;14.10;;;26.90;99.90;;;;;;6149446;23;20024;-86
2022/08/15 11:59:26;;;;;;;15.88;13.45;;;26.90;99.90;;;;;;6176336;23;20032;-85
2022/08/15 12:02:18;;;;;;;17.73;14.38;;;26.90;99.70;;;;;;6149825;23;20017;-86
2022/08/15 12:04:47;;;;;;;17.27;13.88;;;26.90;99.80;;;;;;6149031;23;20063;-86
2022/08/15 12:07:28;;;;;;;20.13;13.15;;;26.90;99.50;;;;;;6176551;22;20017;-86
2022/08/15 12:09:58;;;;;;;15.05;12.98;;;26.80;99.00;;;;;;6148730;23;20066;-86
2022/08/15 12:12:45;;;;;;;16.73;12.57;;;26.80;99.20;;;;;;6125432;23;20017;-85
2022/08/15 12:15:32;;;;;;;14.68;11.82;;;26.70;99.80;;;;;;6150204;23;20115;-85
2022/08/15 12:18:09;;;;;;;13.80;9.82;;;26.70;99.70;;;;;;6149414;23;20018;-86
2022/08/15 12:20:39;;;;;;;11.18;8.80;;;26.60;99.70;;;;;;6176132;23;20017;-85
2022/08/15 12:23:21;;;;;;;14.70;9.48;;;26.60;98.70;;;;;;6148695;23;20092;-86
2022/08/15 12:25:56;;;;;;;10.88;8.07;;;26.50;99.30;;;;;;6149278;23;20021;-85
2022/08/15 12:28:23;;;;;;;12.15;8.68;;;26.50;98.80;;;;;;6176353;23;20087;-85
2022/08/15 12:30:49;;;;;;;10.20;8.10;;;26.40;98.90;;;;;;6175769;23;20516;-85
2022/08/15 12:33:15;;;;;;;10.68;7.95;;;26.40;98.90;;;;;;6149930;23;20086;-85
2022/08/15 12:35:42;;;;;;;11.45;7.68;;;26.50;98.90;;;;;;6149571;23;20021;-85
2022/08/15 12:38:08;;;;;;;11.02;7.38;;;26.50;98.40;;;;;;6149020;23;20416;-85
2022/08/15 12:40:34;;;;;;;10.98;7.30;;;26.60;98.10;;;;;;6175862;23;20017;-85
2022/08/15 12:43:00;;;;;;;10.00;7.45;;;26.70;98.20;;;;;;6124490;23;20062;-85
2022/08/15 12:45:26;;;;;;;12.13;7.97;;;26.80;98.10;;;;;;6176128;23;20084;-85
2022/08/15 12:47:51;;;;;;;11.65;7.40;;;26.80;98.00;;;;;;6124735;23;20480;-85
2022/08/15 12:50:17;;;;;;;11.02;8.10;;;26.90;97.90;;;;;;6165748;23;20040;-85
2022/08/15 12:52:44;;;;;;;10.02;7.47;;;27.00;97.80;;;;;;6173427;23;20035;-85
2022/08/15 12:55:10;;;;;;;12.68;8.32;;;27.00;97.90;;;;;;6174646;23;20013;-85
2022/08/15 12:57:36;;;;;;;11.02;7.80;;;27.00;97.60;;;;;;6173616;22;20017;-85
2022/08/15 13:00:03;;;;;;;17.60;8.93;;;27.20;97.60;;;;;;6174518;23;20042;-85
2022/08/15 13:02:29;;;;;;;16.77;10.63;;;27.30;97.60;;;;;;6149489;22;20070;-85
2022/08/15 13:04:56;;;;;;;13.15;10.98;;;27.40;97.50;;;;;;6173489;22;20013;-85
2022/08/15 13:07:24;;;;;;;11.90;9.82;;;27.30;97.40;;;;;;6148929;23;20120;-85
2022/08/15 13:09:50;;;;;;;13.02;9.68;;;27.50;97.40;;;;;;6173539;23;20013;-85